createdAt,value
2018-05-24T00:00:53.191Z,9.53
2018-05-24T00:03:20.758Z,9.50
2018-05-24T00:05:48.314Z,9.30
2018-05-24T00:08:15.895Z,9.10
2018-05-24T00:10:44.251Z,8.60
2018-05-24T00:13:11.807Z,9.20
2018-05-24T00:15:39.354Z,8.90
2018-05-24T00:18:06.943Z,9.30
2018-05-24T00:20:34.567Z,8.47
2018-05-24T00:23:02.127Z,7.93
2018-05-24T00:25:29.713Z,8.40
2018-05-24T00:27:57.360Z,8.73
2018-05-24T00:30:24.930Z,8.10
2018-05-24T00:32:52.506Z,8.40
2018-05-24T00:35:20.049Z,7.97
2018-05-24T00:37:47.627Z,8.43
2018-05-24T00:40:15.174Z,8.10
2018-05-24T00:42:42.757Z,8.20
2018-05-24T00:45:10.338Z,7.73
2018-05-24T00:47:38.656Z,7.77
2018-05-24T00:50:06.194Z,7.97
2018-05-24T00:52:33.770Z,8.70
2018-05-24T00:55:25.982Z,8.07
2018-05-24T00:57:54.334Z,7.50
2018-05-24T01:00:21.890Z,7.57
2018-05-24T01:02:49.453Z,7.70
2018-05-24T01:05:17.020Z,7.17
2018-05-24T01:07:44.573Z,7.00
2018-05-24T01:10:12.143Z,7.03
2018-05-24T01:12:39.712Z,6.90
2018-05-24T01:15:08.013Z,7.43
2018-05-24T01:17:35.642Z,6.97
2018-05-24T01:20:03.981Z,6.90
2018-05-24T01:22:31.528Z,6.53
2018-05-24T01:24:59.110Z,7.27
2018-05-24T01:27:26.667Z,7.90
2018-05-24T01:29:54.242Z,6.80
2018-05-24T01:32:21.820Z,6.73
2018-05-24T01:34:49.403Z,7.00
2018-05-24T01:37:29.494Z,6.73
2018-05-24T01:39:57.043Z,6.83
2018-05-24T01:42:24.606Z,6.43
2018-05-24T01:44:52.178Z,6.53
2018-05-24T01:47:19.742Z,6.70
2018-05-24T01:49:47.335Z,6.40
2018-05-24T01:52:14.884Z,6.30
2018-05-24T01:54:42.434Z,6.37
2018-05-24T01:57:10.014Z,6.90
2018-05-24T01:59:37.563Z,6.50
2018-05-24T02:02:05.953Z,6.33
2018-05-24T02:04:33.515Z,6.70
2018-05-24T02:07:01.085Z,6.17
2018-05-24T02:09:28.664Z,5.93
2018-05-24T02:11:56.229Z,6.53
2018-05-24T02:14:23.825Z,6.10
2018-05-24T02:16:51.372Z,6.13
2018-05-24T02:19:18.932Z,5.97
2018-05-24T02:21:46.509Z,6.03
2018-05-24T02:24:14.109Z,5.80
2018-05-24T02:26:41.660Z,5.57
2018-05-24T02:29:09.278Z,5.73
2018-05-24T02:31:36.794Z,5.60
2018-05-24T02:34:04.395Z,6.13
2018-05-24T02:36:31.965Z,5.97
2018-05-24T02:38:59.538Z,6.00
2018-05-24T02:41:27.086Z,6.03
2018-05-24T02:43:54.654Z,5.90
2018-05-24T02:46:22.238Z,5.90
2018-05-24T02:48:49.871Z,5.47
2018-05-24T02:51:17.420Z,5.63
2018-05-24T02:53:45.003Z,5.70
2018-05-24T02:56:12.560Z,6.20
2018-05-24T02:58:40.147Z,5.53
2018-05-24T03:01:07.703Z,5.63
2018-05-24T03:03:35.275Z,6.00
2018-05-24T03:06:02.836Z,5.70
2018-05-24T03:08:30.414Z,6.33
2018-05-24T03:10:58.736Z,5.60
2018-05-24T03:13:27.069Z,5.73
2018-05-24T03:15:55.399Z,5.33
2018-05-24T03:18:22.965Z,5.90
2018-05-24T03:20:50.509Z,5.93
2018-05-24T03:23:18.062Z,5.67
2018-05-24T03:25:45.631Z,5.37
2018-05-24T03:28:13.222Z,5.97
2018-05-24T03:30:40.798Z,5.57
2018-05-24T03:33:09.120Z,5.97
2018-05-24T03:35:36.682Z,5.53
2018-05-24T03:38:04.259Z,5.80
2018-05-24T03:40:31.819Z,5.07
2018-05-24T03:42:59.411Z,6.03
2018-05-24T03:45:26.966Z,5.10
2018-05-24T03:47:54.522Z,5.50
2018-05-24T03:50:22.094Z,4.97
2018-05-24T03:52:49.635Z,5.80
2018-05-24T03:55:17.181Z,5.37
2018-05-24T03:57:44.813Z,5.50
2018-05-24T04:00:24.885Z,5.13
2018-05-24T04:03:04.123Z,5.47
2018-05-24T04:05:31.726Z,5.07
2018-05-24T04:08:00.047Z,5.27
2018-05-24T04:10:27.595Z,5.40
2018-05-24T04:12:55.171Z,4.80
2018-05-24T04:15:22.720Z,4.73
2018-05-24T04:17:50.271Z,4.53
2018-05-24T04:20:17.826Z,4.93
2018-05-24T04:22:46.218Z,4.67
2018-05-24T04:25:13.770Z,4.63
2018-05-24T04:27:41.352Z,4.87
2018-05-24T04:30:08.921Z,4.67
2018-05-24T04:32:36.485Z,4.73
2018-05-24T04:35:04.069Z,5.10
2018-05-24T04:37:31.651Z,4.60
2018-05-24T04:40:00.025Z,4.93
2018-05-24T04:42:27.588Z,4.90
2018-05-24T04:44:55.915Z,4.90
2018-05-24T04:47:23.498Z,4.83
2018-05-24T04:49:51.050Z,4.40
2018-05-24T04:52:18.708Z,4.50
2018-05-24T04:54:46.183Z,5.10
2018-05-24T04:57:13.831Z,4.73
2018-05-24T04:59:41.382Z,4.80
2018-05-24T05:02:08.962Z,4.60
2018-05-24T05:04:36.520Z,5.00
2018-05-24T05:07:04.099Z,4.60
2018-05-24T05:09:31.651Z,4.17
2018-05-24T05:11:59.228Z,4.70
2018-05-24T05:14:26.852Z,4.33
2018-05-24T05:16:54.423Z,4.30
2018-05-24T05:19:22.085Z,4.87
2018-05-24T05:21:50.339Z,4.40
2018-05-24T05:24:17.885Z,4.40
2018-05-24T05:26:45.480Z,4.40
2018-05-24T05:29:13.039Z,4.77
2018-05-24T05:31:40.624Z,4.27
2018-05-24T05:34:08.190Z,4.57
2018-05-24T05:36:35.743Z,3.93
2018-05-24T05:39:03.315Z,4.00
2018-05-24T05:41:30.871Z,4.20
2018-05-24T05:43:58.459Z,4.07
2018-05-24T05:46:26.008Z,3.87
2018-05-24T05:48:54.327Z,3.67
2018-05-24T05:51:21.919Z,4.07
2018-05-24T05:53:49.479Z,6.03
2018-05-24T05:56:17.083Z,4.43
2018-05-24T05:58:44.678Z,4.00
2018-05-24T06:01:12.219Z,4.13
2018-05-24T06:03:39.757Z,3.60
2018-05-24T06:06:07.330Z,3.70
2018-05-24T06:08:34.886Z,4.07
2018-05-24T06:11:02.469Z,3.90
2018-05-24T06:13:30.011Z,3.90
2018-05-24T06:15:57.557Z,3.50
2018-05-24T06:18:25.238Z,3.77
2018-05-24T06:20:52.808Z,4.20
2018-05-24T06:23:20.384Z,3.87
2018-05-24T06:25:47.951Z,3.53
2018-05-24T06:28:15.629Z,3.40
2018-05-24T06:30:43.183Z,3.97
2018-05-24T06:33:10.729Z,4.20
2018-05-24T06:35:38.321Z,3.97
2018-05-24T06:38:05.872Z,3.93
2018-05-24T06:40:33.476Z,3.80
2018-05-24T06:43:01.045Z,4.13
2018-05-24T06:45:28.583Z,4.20
2018-05-24T06:47:56.124Z,3.87
2018-05-24T06:50:23.956Z,3.73
2018-05-24T06:52:51.507Z,4.00
2018-05-24T06:55:19.813Z,3.93
2018-05-24T06:57:47.378Z,3.30
2018-05-24T07:00:14.963Z,3.60
2018-05-24T07:02:42.570Z,3.63
2018-05-24T07:05:10.130Z,4.50
2018-05-24T07:07:37.678Z,3.40
2018-05-24T07:10:05.246Z,3.80
2018-05-24T07:12:32.797Z,3.60
2018-05-24T07:15:00.343Z,3.73
2018-05-24T07:17:27.942Z,3.83
2018-05-24T07:19:55.509Z,3.73
2018-05-24T07:22:23.074Z,3.50
2018-05-24T07:24:50.653Z,3.67
2018-05-24T07:27:18.226Z,3.50
2018-05-24T07:29:46.543Z,3.60
2018-05-24T07:32:14.142Z,3.20
2018-05-24T07:34:41.718Z,2.90
2018-05-24T07:37:09.287Z,3.00
2018-05-24T07:39:36.891Z,3.23
2018-05-24T07:42:04.479Z,2.83
2018-05-24T07:44:32.048Z,2.97
2018-05-24T07:46:59.693Z,2.93
2018-05-24T07:49:27.265Z,2.70
2018-05-24T07:51:54.839Z,2.90
2018-05-24T07:54:22.452Z,3.50
2018-05-24T07:56:49.999Z,2.50
2018-05-24T07:59:17.573Z,2.67
2018-05-24T08:01:45.219Z,3.47
2018-05-24T08:04:12.713Z,3.83
2018-05-24T08:06:40.305Z,3.40
2018-05-24T08:09:07.877Z,3.50
2018-05-24T08:11:36.211Z,3.83
2018-05-24T08:14:03.769Z,4.00
2018-05-24T08:16:31.366Z,4.13
2018-05-24T08:18:58.972Z,4.17
2018-05-24T08:21:26.518Z,3.27
2018-05-24T08:23:54.825Z,3.53
2018-05-24T08:26:22.408Z,3.47
2018-05-24T08:28:49.979Z,3.57
2018-05-24T08:31:17.565Z,3.57
2018-05-24T08:33:45.115Z,4.23
2018-05-24T08:36:12.662Z,3.47
2018-05-24T08:38:40.233Z,3.77
2018-05-24T08:41:08.573Z,2.87
2018-05-24T08:43:36.142Z,3.67
2018-05-24T08:46:03.729Z,3.90
2018-05-24T08:48:31.299Z,4.23
2018-05-24T08:50:59.637Z,4.37
2018-05-24T08:53:27.223Z,4.30
2018-05-24T08:55:54.789Z,3.43
2018-05-24T08:58:23.137Z,3.70
2018-05-24T09:00:50.697Z,3.50
2018-05-24T09:03:18.339Z,4.10
2018-05-24T09:05:46.617Z,3.37
2018-05-24T09:08:14.154Z,4.33
2018-05-24T09:10:41.721Z,3.87
2018-05-24T09:13:09.276Z,3.43
2018-05-24T09:15:36.828Z,3.30
2018-05-24T09:18:05.165Z,3.67
2018-05-24T09:20:32.787Z,3.20
2018-05-24T09:23:00.388Z,3.20
2018-05-24T09:25:27.934Z,3.10
2018-05-24T09:27:55.479Z,3.23
2018-05-24T09:30:23.054Z,3.40
2018-05-24T09:32:50.598Z,3.50
2018-05-24T09:35:18.143Z,3.03
2018-05-24T09:37:45.769Z,4.73
2018-05-24T09:40:13.314Z,3.60
2018-05-24T09:42:40.855Z,2.90
2018-05-24T09:45:08.422Z,3.30
2018-05-24T09:47:36.061Z,2.90
2018-05-24T09:50:03.690Z,2.90
2018-05-24T09:52:31.233Z,3.10
2018-05-24T09:54:58.780Z,2.80
2018-05-24T09:57:26.376Z,2.73
2018-05-24T09:59:53.917Z,3.07
2018-05-24T10:02:22.255Z,4.77
2018-05-24T10:04:49.842Z,3.13
2018-05-24T10:07:17.429Z,2.83
2018-05-24T10:09:45.791Z,2.70
2018-05-24T10:12:13.349Z,3.00
2018-05-24T10:14:41.703Z,3.83
2018-05-24T10:17:09.254Z,3.57
2018-05-24T10:19:36.853Z,3.13
2018-05-24T10:22:04.422Z,2.80
2018-05-24T10:24:32.747Z,2.70
2018-05-24T10:27:00.351Z,2.90
2018-05-24T10:29:27.933Z,3.10
2018-05-24T10:31:56.236Z,3.10
2018-05-24T10:34:23.803Z,2.97
2018-05-24T10:36:51.366Z,2.90
2018-05-24T10:39:18.972Z,2.67
2018-05-24T10:41:46.532Z,2.43
2018-05-24T10:44:14.086Z,2.77
2018-05-24T10:46:41.670Z,2.40
2018-05-24T10:49:10.035Z,2.50
2018-05-24T10:51:37.646Z,2.63
2018-05-24T10:54:05.214Z,3.10
2018-05-24T10:56:32.778Z,2.80
2018-05-24T10:59:01.135Z,3.07
2018-05-24T11:01:28.747Z,3.10
2018-05-24T11:03:56.358Z,2.77
2018-05-24T11:06:23.983Z,3.00
2018-05-24T11:08:51.507Z,2.80
2018-05-24T11:11:19.076Z,3.00
2018-05-24T11:13:46.669Z,2.60
2018-05-24T11:16:15.110Z,2.90
2018-05-24T11:18:42.679Z,2.33
2018-05-24T11:21:10.276Z,2.40
2018-05-24T11:23:38.606Z,2.73
2018-05-24T11:26:06.204Z,2.17
2018-05-24T11:28:33.745Z,2.30
2018-05-24T11:31:01.331Z,2.83
2018-05-24T11:33:28.915Z,2.80
2018-05-24T11:35:56.521Z,2.80
2018-05-24T11:38:24.107Z,2.70
2018-05-24T11:40:52.457Z,2.50
2018-05-24T11:43:20.110Z,2.30
2018-05-24T11:45:47.626Z,2.30
2018-05-24T11:48:15.939Z,2.53
2018-05-24T11:50:43.504Z,2.43
2018-05-24T11:53:11.098Z,2.73
2018-05-24T11:55:38.671Z,2.33
2018-05-24T11:58:06.999Z,2.53
2018-05-24T12:00:34.602Z,3.07
2018-05-24T12:03:02.182Z,2.53
2018-05-24T12:05:30.514Z,2.40
2018-05-24T12:07:58.107Z,2.30
2018-05-24T12:10:25.674Z,2.23
2018-05-24T12:12:53.996Z,2.73
2018-05-24T12:15:21.792Z,2.30
2018-05-24T12:17:49.287Z,2.60
2018-05-24T12:20:16.883Z,2.10
2018-05-24T12:22:45.569Z,2.40
2018-05-24T12:25:13.112Z,2.50
2018-05-24T12:27:40.662Z,2.50
2018-05-24T12:30:08.265Z,2.43
2018-05-24T12:32:35.811Z,2.57
2018-05-24T12:35:03.371Z,2.50
2018-05-24T12:37:31.803Z,2.00
2018-05-24T12:39:59.351Z,2.37
2018-05-24T12:42:26.904Z,3.20
2018-05-24T12:44:54.637Z,4.23
2018-05-24T12:47:22.185Z,2.37
2018-05-24T12:49:49.725Z,3.63
2018-05-24T12:52:18.121Z,2.60
2018-05-24T12:54:45.682Z,2.80
2018-05-24T12:57:13.242Z,3.40
2018-05-24T12:59:40.816Z,3.10
2018-05-24T13:02:08.376Z,2.47
2018-05-24T13:04:35.955Z,2.67
2018-05-24T13:07:03.497Z,2.50
2018-05-24T13:09:31.105Z,2.10
2018-05-24T13:11:58.658Z,2.87
2018-05-24T13:14:26.200Z,2.27
2018-05-24T13:16:53.805Z,2.80
2018-05-24T13:19:22.116Z,2.43
2018-05-24T13:21:49.654Z,2.47
2018-05-24T13:24:17.213Z,3.70
2018-05-24T13:26:45.551Z,2.80
2018-05-24T13:29:13.084Z,2.20
2018-05-24T13:31:40.678Z,2.37
2018-05-24T13:34:08.243Z,2.30
2018-05-24T13:36:35.786Z,1.97
2018-05-24T13:39:03.367Z,1.90
2018-05-24T13:41:30.920Z,1.90
2018-05-24T13:43:58.497Z,3.40
2018-05-24T13:46:26.055Z,3.23
2018-05-24T13:48:54.403Z,2.13
2018-05-24T13:51:21.993Z,2.10
2018-05-24T13:53:50.331Z,2.30
2018-05-24T13:56:17.876Z,1.90
2018-05-24T13:58:45.454Z,2.20
2018-05-24T14:01:13.035Z,1.80
2018-05-24T14:03:40.586Z,2.00
2018-05-24T14:06:08.183Z,2.50
2018-05-24T14:08:35.726Z,2.63
2018-05-24T14:11:03.699Z,3.03
2018-05-24T14:13:31.276Z,2.60
2018-05-24T14:15:59.598Z,2.47
2018-05-24T14:18:27.187Z,2.63
2018-05-24T14:20:54.918Z,1.87
2018-05-24T14:23:24.111Z,2.07
2018-05-24T14:25:51.725Z,1.83
2018-05-24T14:28:19.281Z,1.87
2018-05-24T14:30:46.849Z,2.43
2018-05-24T14:33:15.234Z,1.73
2018-05-24T14:35:43.570Z,1.83
2018-05-24T14:38:11.191Z,1.90
2018-05-24T14:40:38.796Z,1.70
2018-05-24T14:43:06.345Z,3.23
2018-05-24T14:45:33.913Z,2.10
2018-05-24T14:48:01.474Z,1.60
2018-05-24T14:50:29.046Z,3.57
2018-05-24T14:52:56.677Z,1.80
2018-05-24T14:55:25.066Z,1.90
2018-05-24T14:57:52.641Z,1.93
2018-05-24T15:00:20.187Z,1.73
2018-05-24T15:02:47.749Z,1.70
2018-05-24T15:05:15.326Z,1.80
2018-05-24T15:07:42.888Z,2.00
2018-05-24T15:10:10.460Z,1.60
2018-05-24T15:12:38.048Z,1.93
2018-05-24T15:15:06.410Z,3.90
2018-05-24T15:17:33.971Z,1.67
2018-05-24T15:20:01.531Z,1.40
2018-05-24T15:22:29.110Z,1.37
2018-05-24T15:24:56.673Z,1.57
2018-05-24T15:27:24.253Z,1.60
2018-05-24T15:29:51.849Z,1.60
2018-05-24T15:32:19.413Z,1.80
2018-05-24T15:34:47.147Z,2.17
2018-05-24T15:37:14.715Z,1.70
2018-05-24T15:39:42.307Z,1.60
2018-05-24T15:42:09.888Z,1.80
2018-05-24T15:44:38.262Z,1.80
2018-05-24T15:47:06.702Z,1.83
2018-05-24T15:49:34.279Z,1.80
2018-05-24T15:52:01.846Z,1.80
2018-05-24T15:54:29.477Z,1.93
2018-05-24T15:56:57.048Z,1.80
2018-05-24T15:59:24.645Z,1.93
2018-05-24T16:01:52.999Z,1.60
2018-05-24T16:04:20.563Z,2.00
2018-05-24T16:06:48.162Z,1.90
2018-05-24T16:09:16.541Z,1.80
2018-05-24T16:11:44.123Z,1.77
2018-05-24T16:14:11.742Z,2.20
2018-05-24T16:16:39.339Z,1.90
2018-05-24T16:19:06.907Z,2.20
2018-05-24T16:21:34.518Z,2.10
2018-05-24T16:24:02.486Z,2.00
2018-05-24T16:26:30.113Z,2.03
2018-05-24T16:28:57.686Z,1.67
2018-05-24T16:31:25.263Z,1.87
2018-05-24T16:33:52.868Z,1.83
2018-05-24T16:36:20.465Z,2.00
2018-05-24T16:38:48.143Z,2.40
2018-05-24T16:41:15.709Z,2.80
2018-05-24T16:43:43.300Z,2.10
2018-05-24T16:46:11.671Z,2.20
2018-05-24T16:48:39.282Z,2.10
2018-05-24T16:51:06.863Z,2.00
2018-05-24T16:53:34.434Z,1.80
2018-05-24T16:56:02.184Z,1.90
2018-05-24T16:58:29.789Z,2.00
2018-05-24T17:00:58.130Z,1.67
2018-05-24T17:03:25.724Z,1.97
2018-05-24T17:05:53.303Z,1.93
2018-05-24T17:08:20.974Z,1.80
2018-05-24T17:10:48.549Z,2.37
2018-05-24T17:13:16.932Z,2.97
2018-05-24T17:15:44.506Z,2.60
2018-05-24T17:18:12.087Z,2.20
2018-05-24T17:20:39.692Z,2.40
2018-05-24T17:23:07.280Z,2.00
2018-05-24T17:25:34.862Z,2.60
2018-05-24T17:28:03.002Z,2.40
2018-05-24T17:30:30.607Z,2.20
2018-05-24T17:32:58.183Z,2.40
2018-05-24T17:35:25.794Z,2.53
2018-05-24T17:37:53.435Z,2.33
2018-05-24T17:40:21.021Z,2.10
2018-05-24T17:42:48.588Z,2.40
2018-05-24T17:45:16.189Z,2.87
2018-05-24T17:47:43.829Z,2.80
2018-05-24T17:50:11.386Z,2.80
2018-05-24T17:52:38.980Z,3.33
2018-05-24T17:55:07.355Z,3.77
2018-05-24T17:57:35.719Z,3.40
2018-05-24T18:00:03.268Z,3.20
2018-05-24T18:02:30.845Z,3.20
2018-05-24T18:04:58.397Z,2.83
2018-05-24T18:07:25.969Z,3.00
2018-05-24T18:09:53.549Z,3.03
2018-05-24T18:12:21.098Z,2.80
2018-05-24T18:14:48.687Z,3.07
2018-05-24T18:17:16.259Z,2.97
2018-05-24T18:19:43.809Z,3.10
2018-05-24T18:22:11.394Z,3.03
2018-05-24T18:24:38.995Z,2.73
2018-05-24T18:27:06.575Z,2.90
2018-05-24T18:29:34.181Z,2.90
2018-05-24T18:32:01.771Z,2.57
2018-05-24T18:34:29.397Z,3.10
2018-05-24T18:36:56.997Z,3.70
2018-05-24T18:39:24.550Z,3.00
2018-05-24T18:41:52.186Z,3.17
2018-05-24T18:44:19.747Z,4.70
2018-05-24T18:46:47.300Z,3.63
2018-05-24T18:49:14.939Z,2.80
2018-05-24T18:51:42.508Z,3.10
2018-05-24T18:54:10.248Z,2.80
2018-05-24T18:56:38.668Z,2.83
2018-05-24T18:59:06.215Z,3.10
2018-05-24T19:01:33.812Z,2.93
2018-05-24T19:04:01.400Z,2.90
2018-05-24T19:06:35.436Z,2.97
2018-05-24T19:09:03.094Z,2.93
2018-05-24T19:11:30.668Z,3.03
2018-05-24T19:13:58.228Z,2.97
2018-05-24T19:16:25.867Z,3.40
2018-05-24T19:18:54.188Z,2.90
2018-05-24T19:21:21.753Z,3.17
2018-05-24T19:23:49.420Z,2.80
2018-05-24T19:26:16.964Z,3.43
2018-05-24T19:28:44.587Z,3.50
2018-05-24T19:31:12.271Z,3.27
2018-05-24T19:33:40.025Z,3.37
2018-05-24T19:36:07.579Z,3.30
2018-05-24T19:38:36.469Z,3.50
2018-05-24T19:41:05.145Z,3.20
2018-05-24T19:43:32.722Z,3.80
2018-05-24T19:46:01.212Z,3.73
2018-05-24T19:48:28.780Z,3.63
2018-05-24T19:50:56.396Z,3.70
2018-05-24T19:53:24.775Z,3.53
2018-05-24T19:55:52.837Z,3.87
2018-05-24T19:58:20.486Z,3.27
2018-05-24T20:00:48.038Z,4.13
2018-05-24T20:03:15.605Z,3.97
2018-05-24T20:05:43.222Z,3.17
2018-05-24T20:08:10.787Z,3.37
2018-05-24T20:10:39.167Z,3.50
2018-05-24T20:13:06.800Z,2.93
2018-05-24T20:15:34.341Z,3.10
2018-05-24T20:18:01.891Z,3.33
2018-05-24T20:20:29.512Z,3.23
2018-05-24T20:22:57.895Z,3.00
2018-05-24T20:25:25.443Z,3.20
2018-05-24T20:27:53.871Z,3.00
2018-05-24T20:30:21.469Z,3.00
2018-05-24T20:32:49.046Z,3.13
2018-05-24T20:35:18.192Z,3.07
2018-05-24T20:37:45.752Z,2.90
2018-05-24T20:40:13.347Z,2.73
2018-05-24T20:42:40.959Z,3.17
2018-05-24T20:45:08.518Z,2.73
2018-05-24T20:47:36.276Z,3.23
2018-05-24T20:50:03.832Z,2.87
2018-05-24T20:52:31.389Z,3.30
2018-05-24T20:54:59.217Z,3.40
2018-05-24T20:57:27.546Z,3.17
2018-05-24T20:59:55.168Z,3.23
2018-05-24T21:02:22.793Z,2.87
2018-05-24T21:04:50.543Z,3.30
2018-05-24T21:07:19.098Z,2.90
2018-05-24T21:09:46.661Z,2.43
2018-05-24T21:12:15.064Z,2.63
2018-05-24T21:14:43.480Z,2.53
2018-05-24T21:17:11.862Z,2.23
2018-05-24T21:19:39.469Z,2.77
2018-05-24T21:22:07.130Z,2.60
2018-05-24T21:24:34.743Z,2.47
2018-05-24T21:27:02.368Z,2.27
2018-05-24T21:29:30.036Z,2.37
2018-05-24T21:31:57.600Z,2.47
2018-05-24T21:34:25.162Z,2.27
2018-05-24T21:36:52.788Z,2.70
2018-05-24T21:39:20.346Z,3.00
2018-05-24T21:41:48.659Z,3.03
2018-05-24T21:44:16.308Z,2.87
2018-05-24T21:46:43.845Z,2.50
2018-05-24T21:49:12.167Z,2.03
2018-05-24T21:51:39.782Z,2.63
2018-05-24T21:54:07.393Z,2.43
2018-05-24T21:56:34.955Z,2.93
2018-05-24T21:59:02.532Z,2.70
2018-05-24T22:01:30.128Z,2.80
2018-05-24T22:03:57.682Z,2.70
2018-05-24T22:06:26.064Z,2.53
2018-05-24T22:08:53.679Z,2.90
2018-05-24T22:11:21.254Z,2.53
2018-05-24T22:13:48.883Z,2.40
2018-05-24T22:16:16.480Z,2.70
2018-05-24T22:18:44.345Z,2.77
2018-05-24T22:21:11.971Z,2.80
2018-05-24T22:23:39.531Z,2.93
2018-05-24T22:26:07.872Z,2.73
2018-05-24T22:28:35.589Z,2.67
2018-05-24T22:31:03.135Z,2.57
2018-05-24T22:33:30.690Z,3.00
2018-05-24T22:35:58.286Z,2.70
2018-05-24T22:38:25.834Z,2.83
2018-05-24T22:40:53.382Z,2.83
2018-05-24T22:43:20.992Z,2.40
2018-05-24T22:45:49.391Z,2.70
2018-05-24T22:48:17.747Z,3.40
2018-05-24T22:50:46.143Z,2.70
2018-05-24T22:53:13.760Z,2.70
2018-05-24T22:55:41.310Z,3.10
2018-05-24T22:58:08.855Z,3.00
2018-05-24T23:00:36.501Z,3.30
2018-05-24T23:03:04.089Z,2.93
2018-05-24T23:05:31.652Z,2.90
2018-05-24T23:07:59.200Z,3.17
2018-05-24T23:10:26.745Z,3.27
2018-05-24T23:12:54.337Z,3.10
2018-05-24T23:15:21.880Z,3.27
2018-05-24T23:17:49.443Z,2.73
2018-05-24T23:20:17.045Z,3.30
2018-05-24T23:22:44.603Z,3.03
2018-05-24T23:25:12.165Z,2.90
2018-05-24T23:27:39.767Z,2.73
2018-05-24T23:30:07.318Z,3.13
2018-05-24T23:32:34.861Z,2.90
2018-05-24T23:35:03.231Z,2.93
2018-05-24T23:37:30.872Z,2.90
2018-05-24T23:39:58.414Z,3.17
2018-05-24T23:42:26.018Z,2.90
2018-05-24T23:44:53.574Z,3.13
2018-05-24T23:47:21.129Z,3.20
2018-05-24T23:49:48.700Z,3.07
2018-05-24T23:52:16.290Z,3.00
2018-05-24T23:54:43.863Z,3.03
2018-05-24T23:57:11.422Z,3.10
2018-05-24T23:59:39.011Z,3.20
